sensor_id;sensor_type;location;lat;lon;timestamp;temperature;humidity
23721;DHT22;42950;52.134;5.578;2022-10-15T00:00:30;12.20;99.90
23721;DHT22;42950;52.134;5.578;2022-10-15T00:02:56;12.30;99.90
23721;DHT22;42950;52.134;5.578;2022-10-15T00:05:21;12.30;99.90
23721;DHT22;42950;52.134;5.578;2022-10-15T00:07:48;12.30;99.90
23721;DHT22;42950;52.134;5.578;2022-10-15T00:10:14;12.40;99.90
23721;DHT22;42950;52.134;5.578;2022-10-15T00:12:40;12.40;99.90
23721;DHT22;42950;52.134;5.578;2022-10-15T00:15:07;12.30;99.90
23721;DHT22;42950;52.134;5.578;2022-10-15T00:17:34;12.30;99.90
23721;DHT22;42950;52.134;5.578;2022-10-15T00:20:00;12.30;99.90
23721;DHT22;42950;52.134;5.578;2022-10-15T00:22:26;12.30;99.90
23721;DHT22;42950;52.134;5.578;2022-10-15T00:24:52;12.40;99.90
23721;DHT22;42950;52.134;5.578;2022-10-15T00:27:18;12.40;99.90
23721;DHT22;42950;52.134;5.578;2022-10-15T00:29:43;12.40;99.90
23721;DHT22;42950;52.134;5.578;2022-10-15T00:32:09;12.40;99.90
23721;DHT22;42950;52.134;5.578;2022-10-15T00:34:35;12.40;99.90
23721;DHT22;42950;52.134;5.578;2022-10-15T00:37:00;12.40;99.90
23721;DHT22;42950;52.134;5.578;2022-10-15T00:39:26;12.50;99.90
23721;DHT22;42950;52.134;5.578;2022-10-15T00:41:53;12.50;99.90
23721;DHT22;42950;52.134;5.578;2022-10-15T00:46:57;12.50;99.90
23721;DHT22;42950;52.134;5.578;2022-10-15T00:49:32;12.50;99.90
23721;DHT22;42950;52.134;5.578;2022-10-15T00:52:07;12.50;99.90
23721;DHT22;42950;52.134;5.578;2022-10-15T00:54:44;12.50;99.90
23721;DHT22;42950;52.134;5.578;2022-10-15T00:57:12;12.60;99.90
23721;DHT22;42950;52.134;5.578;2022-10-15T00:59:46;12.60;99.90
23721;DHT22;42950;52.134;5.578;2022-10-15T01:02:17;12.60;99.90
23721;DHT22;42950;52.134;5.578;2022-10-15T01:04:44;12.60;99.90
23721;DHT22;42950;52.134;5.578;2022-10-15T01:07:11;12.50;99.90
23721;DHT22;42950;52.134;5.578;2022-10-15T01:09:39;12.60;99.90
23721;DHT22;42950;52.134;5.578;2022-10-15T01:12:15;12.50;99.90
23721;DHT22;42950;52.134;5.578;2022-10-15T01:15:21;12.50;99.90
23721;DHT22;42950;52.134;5.578;2022-10-15T01:17:53;12.60;99.90
23721;DHT22;42950;52.134;5.578;2022-10-15T01:20:36;12.60;99.90
23721;DHT22;42950;52.134;5.578;2022-10-15T01:26:20;12.60;99.90
23721;DHT22;42950;52.134;5.578;2022-10-15T01:31:43;12.60;99.90
23721;DHT22;42950;52.134;5.578;2022-10-15T01:34:47;12.60;99.90
23721;DHT22;42950;52.134;5.578;2022-10-15T01:39:50;12.60;99.90
23721;DHT22;42950;52.134;5.578;2022-10-15T01:42:25;12.60;99.90
23721;DHT22;42950;52.134;5.578;2022-10-15T01:44:58;12.60;99.90
23721;DHT22;42950;52.134;5.578;2022-10-15T01:47:52;12.60;99.90
23721;DHT22;42950;52.134;5.578;2022-10-15T01:50:26;12.60;99.90
23721;DHT22;42950;52.134;5.578;2022-10-15T01:52:55;12.60;99.90
23721;DHT22;42950;52.134;5.578;2022-10-15T01:55:23;12.60;99.90
23721;DHT22;42950;52.134;5.578;2022-10-15T01:57:49;12.60;99.90
23721;DHT22;42950;52.134;5.578;2022-10-15T02:00:16;12.70;99.90
23721;DHT22;42950;52.134;5.578;2022-10-15T02:02:42;12.60;99.90
23721;DHT22;42950;52.134;5.578;2022-10-15T02:05:24;12.70;99.90
23721;DHT22;42950;52.134;5.578;2022-10-15T02:16:02;12.60;99.90
23721;DHT22;42950;52.134;5.578;2022-10-15T02:19:55;12.50;99.90
23721;DHT22;42950;52.134;5.578;2022-10-15T02:21:58;12.50;99.90
23721;DHT22;42950;52.134;5.578;2022-10-15T02:24:34;12.50;99.90
23721;DHT22;42950;52.134;5.578;2022-10-15T02:27:02;12.60;99.90
23721;DHT22;42950;52.134;5.578;2022-10-15T02:29:32;12.60;99.90
23721;DHT22;42950;52.134;5.578;2022-10-15T02:32:00;12.50;99.90
23721;DHT22;42950;52.134;5.578;2022-10-15T02:34:29;12.60;99.90
23721;DHT22;42950;52.134;5.578;2022-10-15T02:37:01;12.60;99.90
23721;DHT22;42950;52.134;5.578;2022-10-15T02:39:27;12.60;99.90
23721;DHT22;42950;52.134;5.578;2022-10-15T02:41:53;12.60;99.90
23721;DHT22;42950;52.134;5.578;2022-10-15T02:44:20;12.70;99.90
23721;DHT22;42950;52.134;5.578;2022-10-15T02:46:46;12.70;99.90
23721;DHT22;42950;52.134;5.578;2022-10-15T02:49:12;12.70;99.90
23721;DHT22;42950;52.134;5.578;2022-10-15T02:51:39;12.70;99.90
23721;DHT22;42950;52.134;5.578;2022-10-15T02:54:05;12.70;99.90
23721;DHT22;42950;52.134;5.578;2022-10-15T02:56:33;12.70;99.90
23721;DHT22;42950;52.134;5.578;2022-10-15T02:58:59;12.70;99.90
23721;DHT22;42950;52.134;5.578;2022-10-15T03:01:26;12.70;99.90
23721;DHT22;42950;52.134;5.578;2022-10-15T03:03:51;12.70;99.90
23721;DHT22;42950;52.134;5.578;2022-10-15T03:06:17;12.80;99.90
23721;DHT22;42950;52.134;5.578;2022-10-15T03:08:43;12.80;99.90
23721;DHT22;42950;52.134;5.578;2022-10-15T03:11:09;12.80;99.90
23721;DHT22;42950;52.134;5.578;2022-10-15T03:13:37;12.80;99.90
23721;DHT22;42950;52.134;5.578;2022-10-15T03:16:04;12.80;99.90
23721;DHT22;42950;52.134;5.578;2022-10-15T03:18:31;12.80;99.90
23721;DHT22;42950;52.134;5.578;2022-10-15T03:20:57;12.80;99.90
23721;DHT22;42950;52.134;5.578;2022-10-15T03:23:23;12.80;99.90
23721;DHT22;42950;52.134;5.578;2022-10-15T03:25:49;12.80;99.90
23721;DHT22;42950;52.134;5.578;2022-10-15T03:28:15;12.80;99.90
23721;DHT22;42950;52.134;5.578;2022-10-15T03:30:41;12.70;99.90
23721;DHT22;42950;52.134;5.578;2022-10-15T03:33:08;12.70;99.90
23721;DHT22;42950;52.134;5.578;2022-10-15T03:35:34;12.70;99.90
23721;DHT22;42950;52.134;5.578;2022-10-15T03:37:59;12.70;99.90
23721;DHT22;42950;52.134;5.578;2022-10-15T03:40:26;12.60;99.90
23721;DHT22;42950;52.134;5.578;2022-10-15T03:42:52;12.60;99.90
23721;DHT22;42950;52.134;5.578;2022-10-15T03:45:22;12.60;99.90
23721;DHT22;42950;52.134;5.578;2022-10-15T03:47:48;12.50;99.90
23721;DHT22;42950;52.134;5.578;2022-10-15T03:50:14;12.50;99.90
23721;DHT22;42950;52.134;5.578;2022-10-15T03:52:39;12.50;99.90
23721;DHT22;42950;52.134;5.578;2022-10-15T03:55:07;12.50;99.90
23721;DHT22;42950;52.134;5.578;2022-10-15T03:57:33;12.40;99.90
23721;DHT22;42950;52.134;5.578;2022-10-15T03:59:58;12.40;99.90
23721;DHT22;42950;52.134;5.578;2022-10-15T04:02:24;12.40;99.90
23721;DHT22;42950;52.134;5.578;2022-10-15T04:04:53;12.40;99.90
23721;DHT22;42950;52.134;5.578;2022-10-15T04:07:20;12.40;99.90
23721;DHT22;42950;52.134;5.578;2022-10-15T04:09:46;12.40;99.90
23721;DHT22;42950;52.134;5.578;2022-10-15T04:12:13;12.40;99.90
23721;DHT22;42950;52.134;5.578;2022-10-15T04:14:39;12.30;99.90
23721;DHT22;42950;52.134;5.578;2022-10-15T04:17:05;12.30;99.90
23721;DHT22;42950;52.134;5.578;2022-10-15T04:19:31;12.30;99.90
23721;DHT22;42950;52.134;5.578;2022-10-15T04:21:57;12.30;99.90
23721;DHT22;42950;52.134;5.578;2022-10-15T04:24:23;12.20;99.90
23721;DHT22;42950;52.134;5.578;2022-10-15T04:26:48;12.20;99.90
23721;DHT22;42950;52.134;5.578;2022-10-15T04:29:15;12.20;99.90
23721;DHT22;42950;52.134;5.578;2022-10-15T04:31:41;12.20;99.90
23721;DHT22;42950;52.134;5.578;2022-10-15T04:34:07;12.20;99.90
23721;DHT22;42950;52.134;5.578;2022-10-15T04:36:34;12.20;99.90
23721;DHT22;42950;52.134;5.578;2022-10-15T04:39:01;12.20;99.90
23721;DHT22;42950;52.134;5.578;2022-10-15T04:41:27;12.20;99.90
23721;DHT22;42950;52.134;5.578;2022-10-15T04:43:52;12.20;99.90
23721;DHT22;42950;52.134;5.578;2022-10-15T04:46:18;12.20;99.90
23721;DHT22;42950;52.134;5.578;2022-10-15T04:48:47;12.20;99.90
23721;DHT22;42950;52.134;5.578;2022-10-15T04:51:18;12.10;99.90
23721;DHT22;42950;52.134;5.578;2022-10-15T04:53:46;12.20;99.90
23721;DHT22;42950;52.134;5.578;2022-10-15T04:56:14;12.10;99.90
23721;DHT22;42950;52.134;5.578;2022-10-15T04:58:43;12.20;99.90
23721;DHT22;42950;52.134;5.578;2022-10-15T05:01:11;12.20;99.90
23721;DHT22;42950;52.134;5.578;2022-10-15T05:03:38;12.20;99.90
23721;DHT22;42950;52.134;5.578;2022-10-15T05:06:15;12.20;99.90
23721;DHT22;42950;52.134;5.578;2022-10-15T05:08:42;12.20;99.90
23721;DHT22;42950;52.134;5.578;2022-10-15T05:11:14;12.30;99.90
23721;DHT22;42950;52.134;5.578;2022-10-15T05:13:41;12.30;99.90
23721;DHT22;42950;52.134;5.578;2022-10-15T05:16:11;12.40;99.90
23721;DHT22;42950;52.134;5.578;2022-10-15T05:18:38;12.40;99.90
23721;DHT22;42950;52.134;5.578;2022-10-15T05:21:04;12.40;99.90
23721;DHT22;42950;52.134;5.578;2022-10-15T05:23:30;12.40;99.90
23721;DHT22;42950;52.134;5.578;2022-10-15T05:26:04;12.40;99.90
23721;DHT22;42950;52.134;5.578;2022-10-15T05:28:30;12.40;99.90
23721;DHT22;42950;52.134;5.578;2022-10-15T05:30:56;12.50;99.90
23721;DHT22;42950;52.134;5.578;2022-10-15T05:33:27;12.40;99.90
23721;DHT22;42950;52.134;5.578;2022-10-15T05:35:52;12.50;99.90
23721;DHT22;42950;52.134;5.578;2022-10-15T05:38:18;12.50;99.90
23721;DHT22;42950;52.134;5.578;2022-10-15T05:40:47;12.50;99.90
23721;DHT22;42950;52.134;5.578;2022-10-15T05:43:14;12.50;99.90
23721;DHT22;42950;52.134;5.578;2022-10-15T05:45:39;12.60;99.90
23721;DHT22;42950;52.134;5.578;2022-10-15T05:48:05;12.60;99.90
23721;DHT22;42950;52.134;5.578;2022-10-15T05:50:31;12.60;99.90
23721;DHT22;42950;52.134;5.578;2022-10-15T05:52:57;12.60;99.90
23721;DHT22;42950;52.134;5.578;2022-10-15T05:55:24;12.60;99.90
23721;DHT22;42950;52.134;5.578;2022-10-15T05:57:50;12.60;99.90
23721;DHT22;42950;52.134;5.578;2022-10-15T06:00:17;12.60;99.90
23721;DHT22;42950;52.134;5.578;2022-10-15T06:02:43;12.70;99.90
23721;DHT22;42950;52.134;5.578;2022-10-15T06:05:08;12.70;99.90
23721;DHT22;42950;52.134;5.578;2022-10-15T06:07:34;12.70;99.90
23721;DHT22;42950;52.134;5.578;2022-10-15T06:10:00;12.70;99.90
23721;DHT22;42950;52.134;5.578;2022-10-15T06:12:26;12.70;99.90
23721;DHT22;42950;52.134;5.578;2022-10-15T06:14:52;12.70;99.90
23721;DHT22;42950;52.134;5.578;2022-10-15T06:17:18;12.70;99.90
23721;DHT22;42950;52.134;5.578;2022-10-15T06:19:44;12.70;99.90
23721;DHT22;42950;52.134;5.578;2022-10-15T06:22:11;12.70;99.90
23721;DHT22;42950;52.134;5.578;2022-10-15T06:24:36;12.70;99.90
23721;DHT22;42950;52.134;5.578;2022-10-15T06:27:02;12.70;99.90
23721;DHT22;42950;52.134;5.578;2022-10-15T06:29:27;12.80;99.90
23721;DHT22;42950;52.134;5.578;2022-10-15T06:31:53;12.80;99.90
23721;DHT22;42950;52.134;5.578;2022-10-15T06:34:19;12.70;99.90
23721;DHT22;42950;52.134;5.578;2022-10-15T06:36:44;12.70;99.90
23721;DHT22;42950;52.134;5.578;2022-10-15T06:39:10;12.80;99.90
23721;DHT22;42950;52.134;5.578;2022-10-15T06:41:35;12.80;99.90
23721;DHT22;42950;52.134;5.578;2022-10-15T06:44:01;12.70;99.90
23721;DHT22;42950;52.134;5.578;2022-10-15T06:46:26;12.70;99.90
23721;DHT22;42950;52.134;5.578;2022-10-15T06:48:52;12.70;99.90
23721;DHT22;42950;52.134;5.578;2022-10-15T06:51:18;12.70;99.90
23721;DHT22;42950;52.134;5.578;2022-10-15T06:53:44;12.80;99.90
23721;DHT22;42950;52.134;5.578;2022-10-15T06:56:10;12.80;99.90
23721;DHT22;42950;52.134;5.578;2022-10-15T06:58:36;12.80;99.90
23721;DHT22;42950;52.134;5.578;2022-10-15T07:01:05;12.90;99.90
23721;DHT22;42950;52.134;5.578;2022-10-15T07:03:32;12.90;99.90
23721;DHT22;42950;52.134;5.578;2022-10-15T07:06:02;12.90;99.90
23721;DHT22;42950;52.134;5.578;2022-10-15T07:08:28;12.90;99.90
23721;DHT22;42950;52.134;5.578;2022-10-15T07:10:53;13.00;99.90
23721;DHT22;42950;52.134;5.578;2022-10-15T07:13:19;13.00;99.90
23721;DHT22;42950;52.134;5.578;2022-10-15T07:15:44;13.10;99.90
23721;DHT22;42950;52.134;5.578;2022-10-15T07:18:11;13.10;99.90
23721;DHT22;42950;52.134;5.578;2022-10-15T07:20:37;13.10;99.90
23721;DHT22;42950;52.134;5.578;2022-10-15T07:23:02;13.20;99.90
23721;DHT22;42950;52.134;5.578;2022-10-15T07:25:28;13.30;99.90
23721;DHT22;42950;52.134;5.578;2022-10-15T07:27:55;13.30;99.90
23721;DHT22;42950;52.134;5.578;2022-10-15T07:30:22;13.30;99.90
23721;DHT22;42950;52.134;5.578;2022-10-15T07:32:47;13.40;99.90
23721;DHT22;42950;52.134;5.578;2022-10-15T07:35:14;13.40;99.90
23721;DHT22;42950;52.134;5.578;2022-10-15T07:37:40;13.40;99.90
23721;DHT22;42950;52.134;5.578;2022-10-15T07:40:06;13.40;99.90
23721;DHT22;42950;52.134;5.578;2022-10-15T07:42:32;13.50;99.90
23721;DHT22;42950;52.134;5.578;2022-10-15T07:44:57;13.50;99.90
23721;DHT22;42950;52.134;5.578;2022-10-15T07:47:23;13.60;99.90
23721;DHT22;42950;52.134;5.578;2022-10-15T07:49:49;13.70;99.90
23721;DHT22;42950;52.134;5.578;2022-10-15T07:52:15;13.70;99.90
23721;DHT22;42950;52.134;5.578;2022-10-15T07:54:40;13.80;99.90
23721;DHT22;42950;52.134;5.578;2022-10-15T07:57:06;13.80;99.90
23721;DHT22;42950;52.134;5.578;2022-10-15T07:59:33;13.90;99.90
23721;DHT22;42950;52.134;5.578;2022-10-15T08:01:58;13.80;99.90
23721;DHT22;42950;52.134;5.578;2022-10-15T08:04:24;13.90;99.90
23721;DHT22;42950;52.134;5.578;2022-10-15T08:06:49;14.00;99.90
23721;DHT22;42950;52.134;5.578;2022-10-15T08:09:15;14.00;99.90
23721;DHT22;42950;52.134;5.578;2022-10-15T08:11:41;14.00;99.90
23721;DHT22;42950;52.134;5.578;2022-10-15T08:14:06;14.00;99.90
23721;DHT22;42950;52.134;5.578;2022-10-15T08:16:32;14.10;99.90
23721;DHT22;42950;52.134;5.578;2022-10-15T08:18:57;14.10;99.90
23721;DHT22;42950;52.134;5.578;2022-10-15T08:21:24;14.20;99.90
23721;DHT22;42950;52.134;5.578;2022-10-15T08:23:49;14.20;99.90
23721;DHT22;42950;52.134;5.578;2022-10-15T08:26:16;14.30;99.90
23721;DHT22;42950;52.134;5.578;2022-10-15T08:28:41;14.40;99.90
23721;DHT22;42950;52.134;5.578;2022-10-15T08:31:07;14.40;99.90
23721;DHT22;42950;52.134;5.578;2022-10-15T08:33:35;14.50;99.90
23721;DHT22;42950;52.134;5.578;2022-10-15T08:36:03;14.40;99.90
23721;DHT22;42950;52.134;5.578;2022-10-15T08:38:29;14.40;99.90
23721;DHT22;42950;52.134;5.578;2022-10-15T08:40:57;14.40;99.90
23721;DHT22;42950;52.134;5.578;2022-10-15T08:43:29;14.50;99.90
23721;DHT22;42950;52.134;5.578;2022-10-15T08:46:00;14.50;99.90
23721;DHT22;42950;52.134;5.578;2022-10-15T08:48:33;14.60;99.90
23721;DHT22;42950;52.134;5.578;2022-10-15T08:51:08;14.60;99.90
23721;DHT22;42950;52.134;5.578;2022-10-15T08:53:51;14.60;99.90
23721;DHT22;42950;52.134;5.578;2022-10-15T08:56:25;14.60;99.90
23721;DHT22;42950;52.134;5.578;2022-10-15T09:01:43;14.70;99.90
23721;DHT22;42950;52.134;5.578;2022-10-15T09:06:55;14.80;99.90
23721;DHT22;42950;52.134;5.578;2022-10-15T09:09:29;14.90;99.90
23721;DHT22;42950;52.134;5.578;2022-10-15T09:14:47;15.00;99.90
23721;DHT22;42950;52.134;5.578;2022-10-15T09:17:24;15.00;99.90
23721;DHT22;42950;52.134;5.578;2022-10-15T09:19:55;15.10;99.90
23721;DHT22;42950;52.134;5.578;2022-10-15T09:22:26;15.10;99.90
23721;DHT22;42950;52.134;5.578;2022-10-15T09:24:53;15.20;99.90
23721;DHT22;42950;52.134;5.578;2022-10-15T09:27:23;15.20;99.90
23721;DHT22;42950;52.134;5.578;2022-10-15T09:30:10;15.30;99.90
23721;DHT22;42950;52.134;5.578;2022-10-15T09:35:14;15.40;99.90
23721;DHT22;42950;52.134;5.578;2022-10-15T09:43:05;15.80;99.90
23721;DHT22;42950;52.134;5.578;2022-10-15T09:45:31;15.80;99.90
23721;DHT22;42950;52.134;5.578;2022-10-15T09:47:59;15.90;99.90
23721;DHT22;42950;52.134;5.578;2022-10-15T09:50:43;15.90;99.90
23721;DHT22;42950;52.134;5.578;2022-10-15T09:53:26;15.90;99.90
23721;DHT22;42950;52.134;5.578;2022-10-15T09:56:17;15.90;99.90
23721;DHT22;42950;52.134;5.578;2022-10-15T09:58:48;15.90;99.90
23721;DHT22;42950;52.134;5.578;2022-10-15T10:01:19;16.00;99.90
23721;DHT22;42950;52.134;5.578;2022-10-15T10:03:53;16.20;99.90
23721;DHT22;42950;52.134;5.578;2022-10-15T10:06:21;16.30;99.90
23721;DHT22;42950;52.134;5.578;2022-10-15T10:08:51;16.20;99.90
23721;DHT22;42950;52.134;5.578;2022-10-15T10:11:18;16.30;99.90
23721;DHT22;42950;52.134;5.578;2022-10-15T10:13:59;16.30;99.90
23721;DHT22;42950;52.134;5.578;2022-10-15T10:16:26;16.20;99.90
23721;DHT22;42950;52.134;5.578;2022-10-15T10:19:14;16.10;99.90
23721;DHT22;42950;52.134;5.578;2022-10-15T10:21:42;16.20;99.90
23721;DHT22;42950;52.134;5.578;2022-10-15T10:24:28;16.20;99.90
23721;DHT22;42950;52.134;5.578;2022-10-15T10:27:00;16.20;99.90
23721;DHT22;42950;52.134;5.578;2022-10-15T10:29:28;16.20;99.90
23721;DHT22;42950;52.134;5.578;2022-10-15T10:31:54;16.10;99.90
23721;DHT22;42950;52.134;5.578;2022-10-15T10:34:27;16.10;99.90
23721;DHT22;42950;52.134;5.578;2022-10-15T10:36:54;16.10;99.90
23721;DHT22;42950;52.134;5.578;2022-10-15T10:39:29;16.00;99.90
23721;DHT22;42950;52.134;5.578;2022-10-15T10:41:57;15.90;99.90
23721;DHT22;42950;52.134;5.578;2022-10-15T10:44:30;15.90;99.90
23721;DHT22;42950;52.134;5.578;2022-10-15T10:47:02;15.90;99.90
23721;DHT22;42950;52.134;5.578;2022-10-15T10:49:42;15.90;99.90
23721;DHT22;42950;52.134;5.578;2022-10-15T10:52:26;15.80;99.90
23721;DHT22;42950;52.134;5.578;2022-10-15T10:55:17;15.80;99.90
23721;DHT22;42950;52.134;5.578;2022-10-15T10:57:53;15.90;99.90
23721;DHT22;42950;52.134;5.578;2022-10-15T11:02:56;16.00;99.90
23721;DHT22;42950;52.134;5.578;2022-10-15T11:05:26;15.90;99.90
23721;DHT22;42950;52.134;5.578;2022-10-15T11:10:24;15.80;99.90
23721;DHT22;42950;52.134;5.578;2022-10-15T11:13:04;15.70;99.90
23721;DHT22;42950;52.134;5.578;2022-10-15T11:18:29;15.60;99.90
23721;DHT22;42950;52.134;5.578;2022-10-15T11:21:22;15.50;99.90
23721;DHT22;42950;52.134;5.578;2022-10-15T11:24:18;15.50;99.90
23721;DHT22;42950;52.134;5.578;2022-10-15T11:49:56;15.70;99.90
23721;DHT22;42950;52.134;5.578;2022-10-15T11:52:30;15.70;99.90
23721;DHT22;42950;52.134;5.578;2022-10-15T11:55:01;15.70;99.90
23721;DHT22;42950;52.134;5.578;2022-10-15T11:57:31;15.70;99.90
23721;DHT22;42950;52.134;5.578;2022-10-15T12:00:08;15.70;99.90
23721;DHT22;42950;52.134;5.578;2022-10-15T12:02:39;15.80;99.90
23721;DHT22;42950;52.134;5.578;2022-10-15T12:05:17;15.80;99.90
23721;DHT22;42950;52.134;5.578;2022-10-15T12:07:46;15.80;99.90
23721;DHT22;42950;52.134;5.578;2022-10-15T12:13:01;15.90;99.90
23721;DHT22;42950;52.134;5.578;2022-10-15T12:16:02;15.90;99.90
23721;DHT22;42950;52.134;5.578;2022-10-15T12:21:18;15.90;99.90
23721;DHT22;42950;52.134;5.578;2022-10-15T12:23:48;16.00;99.90
23721;DHT22;42950;52.134;5.578;2022-10-15T12:28:55;16.00;99.90
23721;DHT22;42950;52.134;5.578;2022-10-15T12:31:22;16.00;99.90
23721;DHT22;42950;52.134;5.578;2022-10-15T12:33:53;16.10;99.90
23721;DHT22;42950;52.134;5.578;2022-10-15T12:36:26;16.10;99.90
23721;DHT22;42950;52.134;5.578;2022-10-15T12:39:03;16.10;99.90
23721;DHT22;42950;52.134;5.578;2022-10-15T12:41:52;16.10;99.90
23721;DHT22;42950;52.134;5.578;2022-10-15T12:44:29;16.10;99.90
23721;DHT22;42950;52.134;5.578;2022-10-15T12:46:56;16.10;99.90
23721;DHT22;42950;52.134;5.578;2022-10-15T12:51:59;16.10;99.90
23721;DHT22;42950;52.134;5.578;2022-10-15T12:56:56;16.20;99.90
23721;DHT22;42950;52.134;5.578;2022-10-15T13:04:57;16.30;99.90
23721;DHT22;42950;52.134;5.578;2022-10-15T13:07:23;16.30;99.90
23721;DHT22;42950;52.134;5.578;2022-10-15T13:09:49;16.30;99.90
23721;DHT22;42950;52.134;5.578;2022-10-15T13:12:26;16.30;99.90
23721;DHT22;42950;52.134;5.578;2022-10-15T13:14:56;16.40;99.90
23721;DHT22;42950;52.134;5.578;2022-10-15T13:17:28;16.50;99.90
23721;DHT22;42950;52.134;5.578;2022-10-15T13:19:58;16.50;99.90
23721;DHT22;42950;52.134;5.578;2022-10-15T13:22:26;16.50;99.90
23721;DHT22;42950;52.134;5.578;2022-10-15T13:24:53;16.60;99.90
23721;DHT22;42950;52.134;5.578;2022-10-15T13:27:36;16.50;99.90
23721;DHT22;42950;52.134;5.578;2022-10-15T13:30:10;16.50;99.90
23721;DHT22;42950;52.134;5.578;2022-10-15T13:32:46;16.50;99.90
23721;DHT22;42950;52.134;5.578;2022-10-15T13:35:18;16.60;99.90
23721;DHT22;42950;52.134;5.578;2022-10-15T13:37:45;16.70;99.90
23721;DHT22;42950;52.134;5.578;2022-10-15T13:40:27;16.70;99.90
23721;DHT22;42950;52.134;5.578;2022-10-15T13:45:23;16.70;99.90
23721;DHT22;42950;52.134;5.578;2022-10-15T13:47:51;16.70;99.90
23721;DHT22;42950;52.134;5.578;2022-10-15T13:52:49;16.70;99.90
23721;DHT22;42950;52.134;5.578;2022-10-15T13:55:25;16.70;99.90
23721;DHT22;42950;52.134;5.578;2022-10-15T13:57:58;16.70;99.90
23721;DHT22;42950;52.134;5.578;2022-10-15T14:00:27;16.80;99.90
23721;DHT22;42950;52.134;5.578;2022-10-15T14:05:44;16.80;99.90
23721;DHT22;42950;52.134;5.578;2022-10-15T14:10:46;16.90;99.90
23721;DHT22;42950;52.134;5.578;2022-10-15T14:13:13;16.80;99.90
23721;DHT22;42950;52.134;5.578;2022-10-15T14:18:09;16.70;99.90
23721;DHT22;42950;52.134;5.578;2022-10-15T14:20:35;16.70;99.90
23721;DHT22;42950;52.134;5.578;2022-10-15T14:23:01;16.70;99.90
23721;DHT22;42950;52.134;5.578;2022-10-15T14:25:26;16.80;99.90
23721;DHT22;42950;52.134;5.578;2022-10-15T14:27:52;16.80;99.90
23721;DHT22;42950;52.134;5.578;2022-10-15T14:32:51;16.80;99.90
23721;DHT22;42950;52.134;5.578;2022-10-15T14:35:32;16.90;99.90
23721;DHT22;42950;52.134;5.578;2022-10-15T14:38:04;16.90;99.90
23721;DHT22;42950;52.134;5.578;2022-10-15T14:40:30;16.90;99.90
23721;DHT22;42950;52.134;5.578;2022-10-15T14:43:05;17.00;99.90
23721;DHT22;42950;52.134;5.578;2022-10-15T14:48:36;17.00;99.90
23721;DHT22;42950;52.134;5.578;2022-10-15T14:51:05;17.00;99.90
23721;DHT22;42950;52.134;5.578;2022-10-15T14:53:37;16.90;99.90
23721;DHT22;42950;52.134;5.578;2022-10-15T14:56:23;16.90;99.90
23721;DHT22;42950;52.134;5.578;2022-10-15T14:58:54;16.80;99.90
23721;DHT22;42950;52.134;5.578;2022-10-15T15:01:21;16.80;99.90
23721;DHT22;42950;52.134;5.578;2022-10-15T15:03:54;16.90;99.90
23721;DHT22;42950;52.134;5.578;2022-10-15T15:06:21;16.70;99.90
23721;DHT22;42950;52.134;5.578;2022-10-15T15:08:47;16.70;99.90
23721;DHT22;42950;52.134;5.578;2022-10-15T15:11:19;16.70;99.90
23721;DHT22;42950;52.134;5.578;2022-10-15T15:13:46;16.70;99.90
23721;DHT22;42950;52.134;5.578;2022-10-15T15:16:14;16.70;99.90
23721;DHT22;42950;52.134;5.578;2022-10-15T15:18:39;16.60;99.90
23721;DHT22;42950;52.134;5.578;2022-10-15T15:21:11;16.50;99.90
23721;DHT22;42950;52.134;5.578;2022-10-15T15:23:37;16.50;99.90
23721;DHT22;42950;52.134;5.578;2022-10-15T15:26:03;16.40;99.90
23721;DHT22;42950;52.134;5.578;2022-10-15T15:28:28;16.40;99.90
23721;DHT22;42950;52.134;5.578;2022-10-15T15:31:15;16.30;99.90
23721;DHT22;42950;52.134;5.578;2022-10-15T15:33:41;16.20;99.90
23721;DHT22;42950;52.134;5.578;2022-10-15T15:36:14;16.20;99.90
23721;DHT22;42950;52.134;5.578;2022-10-15T15:38:40;16.10;99.90
23721;DHT22;42950;52.134;5.578;2022-10-15T15:41:18;16.10;99.90
23721;DHT22;42950;52.134;5.578;2022-10-15T15:43:44;16.00;99.90
23721;DHT22;42950;52.134;5.578;2022-10-15T15:46:10;15.90;99.90
23721;DHT22;42950;52.134;5.578;2022-10-15T15:48:36;15.90;99.90
23721;DHT22;42950;52.134;5.578;2022-10-15T15:51:05;16.00;99.90
23721;DHT22;42950;52.134;5.578;2022-10-15T15:53:31;15.90;99.90
23721;DHT22;42950;52.134;5.578;2022-10-15T15:55:57;16.00;99.90
23721;DHT22;42950;52.134;5.578;2022-10-15T15:58:23;15.90;99.90
23721;DHT22;42950;52.134;5.578;2022-10-15T16:00:49;15.80;99.90
23721;DHT22;42950;52.134;5.578;2022-10-15T16:03:15;15.80;99.90
23721;DHT22;42950;52.134;5.578;2022-10-15T16:05:41;15.70;99.90
23721;DHT22;42950;52.134;5.578;2022-10-15T16:08:07;15.70;99.90
23721;DHT22;42950;52.134;5.578;2022-10-15T16:10:34;15.70;99.90
23721;DHT22;42950;52.134;5.578;2022-10-15T16:13:01;15.50;99.90
23721;DHT22;42950;52.134;5.578;2022-10-15T16:15:27;15.50;99.90
23721;DHT22;42950;52.134;5.578;2022-10-15T16:17:53;15.40;99.90
23721;DHT22;42950;52.134;5.578;2022-10-15T16:20:19;15.40;99.90
23721;DHT22;42950;52.134;5.578;2022-10-15T16:22:48;15.30;99.90
23721;DHT22;42950;52.134;5.578;2022-10-15T16:25:14;15.20;99.90
23721;DHT22;42950;52.134;5.578;2022-10-15T16:27:40;15.20;99.90
23721;DHT22;42950;52.134;5.578;2022-10-15T16:30:06;15.20;99.90
23721;DHT22;42950;52.134;5.578;2022-10-15T16:32:31;15.20;99.90
23721;DHT22;42950;52.134;5.578;2022-10-15T16:34:57;15.10;99.90
23721;DHT22;42950;52.134;5.578;2022-10-15T16:37:23;15.00;99.90
23721;DHT22;42950;52.134;5.578;2022-10-15T16:39:48;15.00;99.90
23721;DHT22;42950;52.134;5.578;2022-10-15T16:42:14;15.00;99.90
23721;DHT22;42950;52.134;5.578;2022-10-15T16:44:39;14.90;99.90
23721;DHT22;42950;52.134;5.578;2022-10-15T16:47:05;14.90;99.90
23721;DHT22;42950;52.134;5.578;2022-10-15T16:49:31;14.90;99.90
23721;DHT22;42950;52.134;5.578;2022-10-15T16:51:56;14.80;99.90
23721;DHT22;42950;52.134;5.578;2022-10-15T16:54:22;14.80;99.90
23721;DHT22;42950;52.134;5.578;2022-10-15T16:56:47;14.80;99.90
23721;DHT22;42950;52.134;5.578;2022-10-15T16:59:14;14.80;99.90
23721;DHT22;42950;52.134;5.578;2022-10-15T17:01:39;14.70;99.90
23721;DHT22;42950;52.134;5.578;2022-10-15T17:04:05;14.70;99.90
23721;DHT22;42950;52.134;5.578;2022-10-15T17:06:30;14.60;99.90
23721;DHT22;42950;52.134;5.578;2022-10-15T17:08:59;14.60;99.90
23721;DHT22;42950;52.134;5.578;2022-10-15T17:11:28;14.50;99.90
23721;DHT22;42950;52.134;5.578;2022-10-15T17:13:56;14.50;99.90
23721;DHT22;42950;52.134;5.578;2022-10-15T17:18:49;14.40;99.90
23721;DHT22;42950;52.134;5.578;2022-10-15T17:21:21;14.30;99.90
23721;DHT22;42950;52.134;5.578;2022-10-15T17:23:47;14.30;99.90
23721;DHT22;42950;52.134;5.578;2022-10-15T17:26:17;14.30;99.90
23721;DHT22;42950;52.134;5.578;2022-10-15T17:28:43;14.30;99.90